sensor_id;sensor_type;location;lat;lon;timestamp;temperature;humidity
16479;DHT22;8350;52.316;10.530;2024-02-26T00:00:11;0.60;99.90
16479;DHT22;8350;52.316;10.530;2024-02-26T00:02:38;0.70;99.90
16479;DHT22;8350;52.316;10.530;2024-02-26T00:05:06;0.70;99.90
16479;DHT22;8350;52.316;10.530;2024-02-26T00:07:34;0.70;99.90
16479;DHT22;8350;52.316;10.530;2024-02-26T00:10:05;0.70;99.90
16479;DHT22;8350;52.316;10.530;2024-02-26T00:12:32;0.70;99.90
16479;DHT22;8350;52.316;10.530;2024-02-26T00:15:00;0.70;99.90
16479;DHT22;8350;52.316;10.530;2024-02-26T00:17:27;0.60;99.90
16479;DHT22;8350;52.316;10.530;2024-02-26T00:19:54;0.50;99.90
16479;DHT22;8350;52.316;10.530;2024-02-26T00:22:21;0.60;99.90
16479;DHT22;8350;52.316;10.530;2024-02-26T00:24:48;0.70;99.90
16479;DHT22;8350;52.316;10.530;2024-02-26T00:27:15;0.90;99.90
16479;DHT22;8350;52.316;10.530;2024-02-26T00:29:42;0.90;99.90
16479;DHT22;8350;52.316;10.530;2024-02-26T00:32:10;0.80;99.90
16479;DHT22;8350;52.316;10.530;2024-02-26T00:34:37;0.80;99.90
16479;DHT22;8350;52.316;10.530;2024-02-26T00:37:04;0.70;99.90
16479;DHT22;8350;52.316;10.530;2024-02-26T00:39:33;0.70;99.90
16479;DHT22;8350;52.316;10.530;2024-02-26T00:42:00;0.70;99.90
16479;DHT22;8350;52.316;10.530;2024-02-26T00:44:29;0.80;99.90
16479;DHT22;8350;52.316;10.530;2024-02-26T00:46:57;0.80;99.90
16479;DHT22;8350;52.316;10.530;2024-02-26T00:49:28;0.80;99.90
16479;DHT22;8350;52.316;10.530;2024-02-26T00:51:56;0.90;99.90
16479;DHT22;8350;52.316;10.530;2024-02-26T00:54:22;0.90;99.90
16479;DHT22;8350;52.316;10.530;2024-02-26T00:56:49;1.00;99.90
16479;DHT22;8350;52.316;10.530;2024-02-26T00:59:16;1.10;99.90
16479;DHT22;8350;52.316;10.530;2024-02-26T01:01:43;1.10;99.90
16479;DHT22;8350;52.316;10.530;2024-02-26T01:04:11;1.10;99.90
16479;DHT22;8350;52.316;10.530;2024-02-26T01:06:39;1.00;99.90
16479;DHT22;8350;52.316;10.530;2024-02-26T01:09:06;1.00;99.90
16479;DHT22;8350;52.316;10.530;2024-02-26T01:11:33;1.00;99.90
16479;DHT22;8350;52.316;10.530;2024-02-26T01:14:00;1.00;99.90
16479;DHT22;8350;52.316;10.530;2024-02-26T01:16:29;0.90;99.90
16479;DHT22;8350;52.316;10.530;2024-02-26T01:18:57;0.80;99.90
16479;DHT22;8350;52.316;10.530;2024-02-26T01:21:27;0.80;99.90
16479;DHT22;8350;52.316;10.530;2024-02-26T01:23:56;0.80;99.90
16479;DHT22;8350;52.316;10.530;2024-02-26T01:26:23;0.90;99.90
16479;DHT22;8350;52.316;10.530;2024-02-26T01:28:53;0.70;99.90
16479;DHT22;8350;52.316;10.530;2024-02-26T01:31:20;0.70;99.90
16479;DHT22;8350;52.316;10.530;2024-02-26T01:33:47;0.80;99.90
16479;DHT22;8350;52.316;10.530;2024-02-26T01:36:14;0.70;99.90
16479;DHT22;8350;52.316;10.530;2024-02-26T01:38:41;0.50;99.90
16479;DHT22;8350;52.316;10.530;2024-02-26T01:41:09;0.50;99.90
16479;DHT22;8350;52.316;10.530;2024-02-26T01:43:36;0.50;99.90
16479;DHT22;8350;52.316;10.530;2024-02-26T01:46:04;0.50;99.90
16479;DHT22;8350;52.316;10.530;2024-02-26T01:48:31;0.60;99.90
16479;DHT22;8350;52.316;10.530;2024-02-26T01:50:58;0.50;99.90
16479;DHT22;8350;52.316;10.530;2024-02-26T01:53:29;0.60;99.90
16479;DHT22;8350;52.316;10.530;2024-02-26T01:55:56;0.60;99.90
16479;DHT22;8350;52.316;10.530;2024-02-26T01:58:25;0.50;99.90
16479;DHT22;8350;52.316;10.530;2024-02-26T02:00:52;0.50;99.90
16479;DHT22;8350;52.316;10.530;2024-02-26T02:03:19;0.30;99.90
16479;DHT22;8350;52.316;10.530;2024-02-26T02:05:46;0.00;99.90
16479;DHT22;8350;52.316;10.530;2024-02-26T02:08:13;0.10;99.90
16479;DHT22;8350;52.316;10.530;2024-02-26T02:10:43;0.10;99.90
16479;DHT22;8350;52.316;10.530;2024-02-26T02:13:13;0.20;99.90
16479;DHT22;8350;52.316;10.530;2024-02-26T02:15:41;0.30;99.90
16479;DHT22;8350;52.316;10.530;2024-02-26T02:18:08;0.30;99.90
16479;DHT22;8350;52.316;10.530;2024-02-26T02:20:36;0.20;99.90
16479;DHT22;8350;52.316;10.530;2024-02-26T02:23:04;0.20;99.90
16479;DHT22;8350;52.316;10.530;2024-02-26T02:25:31;0.20;99.90
16479;DHT22;8350;52.316;10.530;2024-02-26T02:27:58;0.10;99.90
16479;DHT22;8350;52.316;10.530;2024-02-26T02:30:27;0.20;99.90
16479;DHT22;8350;52.316;10.530;2024-02-26T02:32:55;0.30;99.90
16479;DHT22;8350;52.316;10.530;2024-02-26T02:35:23;0.30;99.90
16479;DHT22;8350;52.316;10.530;2024-02-26T02:37:52;0.30;99.90
16479;DHT22;8350;52.316;10.530;2024-02-26T02:40:19;0.30;99.90
16479;DHT22;8350;52.316;10.530;2024-02-26T02:42:46;0.30;99.90
16479;DHT22;8350;52.316;10.530;2024-02-26T02:45:13;0.20;99.90
16479;DHT22;8350;52.316;10.530;2024-02-26T02:47:40;0.20;99.90
16479;DHT22;8350;52.316;10.530;2024-02-26T02:50:07;0.30;99.90
16479;DHT22;8350;52.316;10.530;2024-02-26T02:52:34;0.40;99.90
16479;DHT22;8350;52.316;10.530;2024-02-26T02:55:03;0.40;99.90
16479;DHT22;8350;52.316;10.530;2024-02-26T02:57:30;0.40;99.90
16479;DHT22;8350;52.316;10.530;2024-02-26T02:59:58;0.40;99.90
16479;DHT22;8350;52.316;10.530;2024-02-26T03:02:25;0.40;99.90
16479;DHT22;8350;52.316;10.530;2024-02-26T03:04:52;0.40;99.90
16479;DHT22;8350;52.316;10.530;2024-02-26T03:07:18;0.30;99.90
16479;DHT22;8350;52.316;10.530;2024-02-26T03:09:46;0.30;99.90
16479;DHT22;8350;52.316;10.530;2024-02-26T03:12:14;0.30;99.90
16479;DHT22;8350;52.316;10.530;2024-02-26T03:14:41;0.30;99.90
16479;DHT22;8350;52.316;10.530;2024-02-26T03:17:11;0.30;99.90
16479;DHT22;8350;52.316;10.530;2024-02-26T03:19:38;0.40;99.90
16479;DHT22;8350;52.316;10.530;2024-02-26T03:22:07;0.40;99.90
16479;DHT22;8350;52.316;10.530;2024-02-26T03:24:34;0.40;99.90
16479;DHT22;8350;52.316;10.530;2024-02-26T03:27:01;0.50;99.90
16479;DHT22;8350;52.316;10.530;2024-02-26T03:29:29;0.50;99.90
16479;DHT22;8350;52.316;10.530;2024-02-26T03:31:56;0.60;99.90
16479;DHT22;8350;52.316;10.530;2024-02-26T03:34:23;0.60;99.90
16479;DHT22;8350;52.316;10.530;2024-02-26T03:36:51;0.70;99.90
16479;DHT22;8350;52.316;10.530;2024-02-26T03:39:18;0.70;99.90
16479;DHT22;8350;52.316;10.530;2024-02-26T03:41:45;0.70;99.90
16479;DHT22;8350;52.316;10.530;2024-02-26T03:44:12;0.70;99.90
16479;DHT22;8350;52.316;10.530;2024-02-26T03:46:40;0.70;99.90
16479;DHT22;8350;52.316;10.530;2024-02-26T03:49:08;0.60;99.90
16479;DHT22;8350;52.316;10.530;2024-02-26T03:51:35;0.60;99.90
16479;DHT22;8350;52.316;10.530;2024-02-26T03:54:03;0.70;99.90
16479;DHT22;8350;52.316;10.530;2024-02-26T03:56:30;0.70;99.90
16479;DHT22;8350;52.316;10.530;2024-02-26T03:58:57;0.70;99.90
16479;DHT22;8350;52.316;10.530;2024-02-26T04:01:25;0.70;99.90
16479;DHT22;8350;52.316;10.530;2024-02-26T04:03:53;0.80;99.90
16479;DHT22;8350;52.316;10.530;2024-02-26T04:06:21;0.90;99.90
16479;DHT22;8350;52.316;10.530;2024-02-26T04:08:48;1.10;99.90
16479;DHT22;8350;52.316;10.530;2024-02-26T04:11:15;1.20;99.90
16479;DHT22;8350;52.316;10.530;2024-02-26T04:13:43;1.20;99.90
16479;DHT22;8350;52.316;10.530;2024-02-26T04:16:11;1.10;99.90
16479;DHT22;8350;52.316;10.530;2024-02-26T04:18:41;1.10;99.90
16479;DHT22;8350;52.316;10.530;2024-02-26T04:21:09;1.10;99.90
16479;DHT22;8350;52.316;10.530;2024-02-26T04:23:36;1.10;99.90
16479;DHT22;8350;52.316;10.530;2024-02-26T04:26:04;1.00;99.90
16479;DHT22;8350;52.316;10.530;2024-02-26T04:28:31;1.00;99.90
16479;DHT22;8350;52.316;10.530;2024-02-26T04:30:59;1.00;99.90
16479;DHT22;8350;52.316;10.530;2024-02-26T04:33:27;0.90;99.90
16479;DHT22;8350;52.316;10.530;2024-02-26T04:35:54;0.80;99.90
16479;DHT22;8350;52.316;10.530;2024-02-26T04:38:22;0.90;99.90
16479;DHT22;8350;52.316;10.530;2024-02-26T04:40:49;1.10;99.90
16479;DHT22;8350;52.316;10.530;2024-02-26T04:43:16;1.40;99.90
16479;DHT22;8350;52.316;10.530;2024-02-26T04:45:44;1.70;99.90
16479;DHT22;8350;52.316;10.530;2024-02-26T04:48:11;1.90;99.90
16479;DHT22;8350;52.316;10.530;2024-02-26T04:50:38;2.00;99.90
16479;DHT22;8350;52.316;10.530;2024-02-26T04:53:05;2.00;99.90
16479;DHT22;8350;52.316;10.530;2024-02-26T04:55:34;1.90;99.90
16479;DHT22;8350;52.316;10.530;2024-02-26T04:58:01;1.90;99.90
16479;DHT22;8350;52.316;10.530;2024-02-26T05:00:28;1.90;99.90
16479;DHT22;8350;52.316;10.530;2024-02-26T05:02:56;1.90;99.90
16479;DHT22;8350;52.316;10.530;2024-02-26T05:05:23;1.80;99.90
16479;DHT22;8350;52.316;10.530;2024-02-26T05:07:50;1.70;99.90
16479;DHT22;8350;52.316;10.530;2024-02-26T05:10:20;1.60;99.90
16479;DHT22;8350;52.316;10.530;2024-02-26T05:12:48;1.70;99.90
16479;DHT22;8350;52.316;10.530;2024-02-26T05:15:17;1.70;99.90
16479;DHT22;8350;52.316;10.530;2024-02-26T05:17:44;1.60;99.90
16479;DHT22;8350;52.316;10.530;2024-02-26T05:20:11;1.50;99.90
16479;DHT22;8350;52.316;10.530;2024-02-26T05:22:38;1.50;99.90
16479;DHT22;8350;52.316;10.530;2024-02-26T05:25:06;1.40;99.90
16479;DHT22;8350;52.316;10.530;2024-02-26T05:27:33;1.40;99.90
16479;DHT22;8350;52.316;10.530;2024-02-26T05:30:02;1.40;99.90
16479;DHT22;8350;52.316;10.530;2024-02-26T05:32:29;1.40;99.90
16479;DHT22;8350;52.316;10.530;2024-02-26T05:34:56;1.40;99.90
16479;DHT22;8350;52.316;10.530;2024-02-26T05:37:22;1.40;99.90
16479;DHT22;8350;52.316;10.530;2024-02-26T05:39:49;1.30;99.90
16479;DHT22;8350;52.316;10.530;2024-02-26T05:42:16;1.10;99.90
16479;DHT22;8350;52.316;10.530;2024-02-26T05:44:43;0.90;99.90
16479;DHT22;8350;52.316;10.530;2024-02-26T05:47:12;0.80;99.90
16479;DHT22;8350;52.316;10.530;2024-02-26T05:49:39;0.80;99.90
16479;DHT22;8350;52.316;10.530;2024-02-26T05:52:06;0.70;99.90
16479;DHT22;8350;52.316;10.530;2024-02-26T05:54:33;0.70;99.90
16479;DHT22;8350;52.316;10.530;2024-02-26T05:57:00;0.70;99.90
16479;DHT22;8350;52.316;10.530;2024-02-26T05:59:27;0.80;99.90
16479;DHT22;8350;52.316;10.530;2024-02-26T06:01:55;0.80;99.90
16479;DHT22;8350;52.316;10.530;2024-02-26T06:04:27;0.80;99.90
16479;DHT22;8350;52.316;10.530;2024-02-26T06:06:55;0.80;99.90
16479;DHT22;8350;52.316;10.530;2024-02-26T06:09:22;0.80;99.90
16479;DHT22;8350;52.316;10.530;2024-02-26T06:11:52;0.80;99.90
16479;DHT22;8350;52.316;10.530;2024-02-26T06:14:21;0.80;99.90
16479;DHT22;8350;52.316;10.530;2024-02-26T06:16:49;1.00;99.90
16479;DHT22;8350;52.316;10.530;2024-02-26T06:19:16;1.10;99.90
16479;DHT22;8350;52.316;10.530;2024-02-26T06:21:44;1.10;99.90
16479;DHT22;8350;52.316;10.530;2024-02-26T06:24:11;1.20;99.90
16479;DHT22;8350;52.316;10.530;2024-02-26T06:26:38;1.30;99.90
16479;DHT22;8350;52.316;10.530;2024-02-26T06:29:05;1.40;99.90
16479;DHT22;8350;52.316;10.530;2024-02-26T06:31:32;1.50;99.90
16479;DHT22;8350;52.316;10.530;2024-02-26T06:33:59;1.50;99.90
16479;DHT22;8350;52.316;10.530;2024-02-26T06:36:26;1.50;99.90
16479;DHT22;8350;52.316;10.530;2024-02-26T06:38:55;1.60;99.90
16479;DHT22;8350;52.316;10.530;2024-02-26T06:41:22;1.60;99.90
16479;DHT22;8350;52.316;10.530;2024-02-26T06:43:52;1.60;99.90
16479;DHT22;8350;52.316;10.530;2024-02-26T06:46:19;1.60;99.90
16479;DHT22;8350;52.316;10.530;2024-02-26T06:48:47;1.60;99.90
16479;DHT22;8350;52.316;10.530;2024-02-26T06:51:15;1.70;99.90
16479;DHT22;8350;52.316;10.530;2024-02-26T06:53:41;1.70;99.90
16479;DHT22;8350;52.316;10.530;2024-02-26T06:56:10;1.80;99.90
16479;DHT22;8350;52.316;10.530;2024-02-26T06:58:37;1.90;99.90
16479;DHT22;8350;52.316;10.530;2024-02-26T07:01:04;2.00;99.90
16479;DHT22;8350;52.316;10.530;2024-02-26T07:03:31;2.10;99.90
16479;DHT22;8350;52.316;10.530;2024-02-26T07:05:58;2.20;99.90
16479;DHT22;8350;52.316;10.530;2024-02-26T07:08:25;2.30;99.90
16479;DHT22;8350;52.316;10.530;2024-02-26T07:10:52;2.30;99.90
16479;DHT22;8350;52.316;10.530;2024-02-26T07:13:20;2.30;99.90
16479;DHT22;8350;52.316;10.530;2024-02-26T07:15:49;2.30;99.90
16479;DHT22;8350;52.316;10.530;2024-02-26T07:18:22;2.40;99.90
16479;DHT22;8350;52.316;10.530;2024-02-26T07:20:49;2.40;99.90
16479;DHT22;8350;52.316;10.530;2024-02-26T07:23:16;2.50;99.90
16479;DHT22;8350;52.316;10.530;2024-02-26T07:25:44;2.50;99.90
16479;DHT22;8350;52.316;10.530;2024-02-26T07:28:12;2.50;99.90
16479;DHT22;8350;52.316;10.530;2024-02-26T07:30:41;2.50;99.90
16479;DHT22;8350;52.316;10.530;2024-02-26T07:33:08;2.60;99.90
16479;DHT22;8350;52.316;10.530;2024-02-26T07:35:35;2.50;99.90
16479;DHT22;8350;52.316;10.530;2024-02-26T07:38:04;2.50;99.90
16479;DHT22;8350;52.316;10.530;2024-02-26T07:40:31;2.60;99.90
16479;DHT22;8350;52.316;10.530;2024-02-26T07:42:58;2.70;99.90
16479;DHT22;8350;52.316;10.530;2024-02-26T07:45:25;2.70;99.90
16479;DHT22;8350;52.316;10.530;2024-02-26T07:47:53;2.70;99.90
16479;DHT22;8350;52.316;10.530;2024-02-26T07:50:20;2.80;99.90
16479;DHT22;8350;52.316;10.530;2024-02-26T07:52:47;2.90;99.90
16479;DHT22;8350;52.316;10.530;2024-02-26T07:55:18;2.90;99.90
16479;DHT22;8350;52.316;10.530;2024-02-26T07:57:46;3.00;99.90
16479;DHT22;8350;52.316;10.530;2024-02-26T08:00:17;3.10;99.90
16479;DHT22;8350;52.316;10.530;2024-02-26T08:02:43;3.20;99.90
16479;DHT22;8350;52.316;10.530;2024-02-26T08:05:12;3.20;99.90
16479;DHT22;8350;52.316;10.530;2024-02-26T08:07:39;3.30;99.90
16479;DHT22;8350;52.316;10.530;2024-02-26T08:10:08;3.30;99.90
16479;DHT22;8350;52.316;10.530;2024-02-26T08:12:34;3.40;99.90
16479;DHT22;8350;52.316;10.530;2024-02-26T08:15:01;3.50;99.90
16479;DHT22;8350;52.316;10.530;2024-02-26T08:17:28;3.60;99.90
16479;DHT22;8350;52.316;10.530;2024-02-26T08:19:55;3.70;99.90
16479;DHT22;8350;52.316;10.530;2024-02-26T08:22:26;3.80;99.90
16479;DHT22;8350;52.316;10.530;2024-02-26T08:24:53;3.80;99.90
16479;DHT22;8350;52.316;10.530;2024-02-26T08:27:20;4.00;99.90
16479;DHT22;8350;52.316;10.530;2024-02-26T08:29:47;4.00;99.90
16479;DHT22;8350;52.316;10.530;2024-02-26T08:32:14;4.00;99.90
16479;DHT22;8350;52.316;10.530;2024-02-26T08:34:42;4.10;99.90
16479;DHT22;8350;52.316;10.530;2024-02-26T08:37:09;4.10;99.90
16479;DHT22;8350;52.316;10.530;2024-02-26T08:39:37;4.20;99.90
16479;DHT22;8350;52.316;10.530;2024-02-26T08:42:05;4.30;99.90
16479;DHT22;8350;52.316;10.530;2024-02-26T08:44:32;4.30;99.90
16479;DHT22;8350;52.316;10.530;2024-02-26T08:47:01;4.30;99.90
16479;DHT22;8350;52.316;10.530;2024-02-26T08:49:29;4.40;99.90
16479;DHT22;8350;52.316;10.530;2024-02-26T08:51:57;4.40;99.90
16479;DHT22;8350;52.316;10.530;2024-02-26T08:54:27;4.40;99.90
16479;DHT22;8350;52.316;10.530;2024-02-26T08:56:55;4.40;99.90
16479;DHT22;8350;52.316;10.530;2024-02-26T08:59:22;4.50;99.90
16479;DHT22;8350;52.316;10.530;2024-02-26T09:01:51;4.50;99.90
16479;DHT22;8350;52.316;10.530;2024-02-26T09:04:20;4.60;99.90
16479;DHT22;8350;52.316;10.530;2024-02-26T09:06:47;4.70;99.90
16479;DHT22;8350;52.316;10.530;2024-02-26T09:09:14;4.80;99.90
16479;DHT22;8350;52.316;10.530;2024-02-26T09:11:41;4.90;99.90
16479;DHT22;8350;52.316;10.530;2024-02-26T09:14:10;4.90;99.90
16479;DHT22;8350;52.316;10.530;2024-02-26T09:16:36;5.00;99.90
16479;DHT22;8350;52.316;10.530;2024-02-26T09:19:03;5.00;99.90
16479;DHT22;8350;52.316;10.530;2024-02-26T09:21:32;5.00;99.90
16479;DHT22;8350;52.316;10.530;2024-02-26T09:23:59;5.00;99.90
16479;DHT22;8350;52.316;10.530;2024-02-26T09:26:26;4.90;99.90
16479;DHT22;8350;52.316;10.530;2024-02-26T09:28:53;5.00;99.90
16479;DHT22;8350;52.316;10.530;2024-02-26T09:31:21;5.10;99.90
16479;DHT22;8350;52.316;10.530;2024-02-26T09:33:48;5.10;99.90
16479;DHT22;8350;52.316;10.530;2024-02-26T09:36:15;5.20;99.90
16479;DHT22;8350;52.316;10.530;2024-02-26T09:38:42;5.20;99.90
16479;DHT22;8350;52.316;10.530;2024-02-26T09:41:14;5.20;99.90
16479;DHT22;8350;52.316;10.530;2024-02-26T09:43:44;5.30;99.90
16479;DHT22;8350;52.316;10.530;2024-02-26T09:46:11;5.30;99.90
16479;DHT22;8350;52.316;10.530;2024-02-26T09:48:44;5.40;99.90
16479;DHT22;8350;52.316;10.530;2024-02-26T09:51:12;5.50;99.90
16479;DHT22;8350;52.316;10.530;2024-02-26T09:53:40;5.60;99.90
16479;DHT22;8350;52.316;10.530;2024-02-26T09:56:11;5.70;99.90
16479;DHT22;8350;52.316;10.530;2024-02-26T09:58:41;5.80;99.90
16479;DHT22;8350;52.316;10.530;2024-02-26T10:01:13;5.90;99.90
16479;DHT22;8350;52.316;10.530;2024-02-26T10:03:46;5.90;99.90
16479;DHT22;8350;52.316;10.530;2024-02-26T10:06:14;6.00;99.90
16479;DHT22;8350;52.316;10.530;2024-02-26T10:08:43;6.00;99.90
16479;DHT22;8350;52.316;10.530;2024-02-26T10:11:10;6.00;99.90
16479;DHT22;8350;52.316;10.530;2024-02-26T10:13:37;6.10;99.90
16479;DHT22;8350;52.316;10.530;2024-02-26T10:16:05;6.20;99.90
16479;DHT22;8350;52.316;10.530;2024-02-26T10:18:47;6.20;99.90
16479;DHT22;8350;52.316;10.530;2024-02-26T10:21:16;6.20;99.90
16479;DHT22;8350;52.316;10.530;2024-02-26T10:23:43;6.20;99.90
16479;DHT22;8350;52.316;10.530;2024-02-26T10:26:11;6.30;99.90
16479;DHT22;8350;52.316;10.530;2024-02-26T10:28:39;6.30;99.90
16479;DHT22;8350;52.316;10.530;2024-02-26T10:31:07;6.30;99.90
16479;DHT22;8350;52.316;10.530;2024-02-26T10:33:34;6.30;99.90
16479;DHT22;8350;52.316;10.530;2024-02-26T10:36:04;6.30;99.90
16479;DHT22;8350;52.316;10.530;2024-02-26T10:38:32;6.30;99.90
16479;DHT22;8350;52.316;10.530;2024-02-26T10:40:59;6.40;99.90
16479;DHT22;8350;52.316;10.530;2024-02-26T10:43:28;6.40;99.90
16479;DHT22;8350;52.316;10.530;2024-02-26T10:45:55;6.40;99.90
16479;DHT22;8350;52.316;10.530;2024-02-26T10:48:22;6.40;99.90
16479;DHT22;8350;52.316;10.530;2024-02-26T10:50:54;6.40;99.90
16479;DHT22;8350;52.316;10.530;2024-02-26T10:53:29;6.50;99.90
16479;DHT22;8350;52.316;10.530;2024-02-26T10:56:01;6.50;99.90
16479;DHT22;8350;52.316;10.530;2024-02-26T10:58:28;6.50;99.90
16479;DHT22;8350;52.316;10.530;2024-02-26T11:00:57;6.50;99.90
16479;DHT22;8350;52.316;10.530;2024-02-26T11:03:24;6.50;99.90
16479;DHT22;8350;52.316;10.530;2024-02-26T11:05:52;6.50;99.90
16479;DHT22;8350;52.316;10.530;2024-02-26T11:08:22;6.50;99.90
16479;DHT22;8350;52.316;10.530;2024-02-26T11:10:53;6.50;99.90
16479;DHT22;8350;52.316;10.530;2024-02-26T11:13:25;6.50;99.90
16479;DHT22;8350;52.316;10.530;2024-02-26T11:15:56;6.60;99.90
16479;DHT22;8350;52.316;10.530;2024-02-26T11:18:27;6.60;99.90
16479;DHT22;8350;52.316;10.530;2024-02-26T11:20:54;6.60;99.90
16479;DHT22;8350;52.316;10.530;2024-02-26T11:23:24;6.60;99.90
16479;DHT22;8350;52.316;10.530;2024-02-26T11:25:55;6.60;99.90
16479;DHT22;8350;52.316;10.530;2024-02-26T11:28:27;6.60;99.90
16479;DHT22;8350;52.316;10.530;2024-02-26T11:30:55;6.60;99.90
16479;DHT22;8350;52.316;10.530;2024-02-26T11:33:28;6.70;99.90
16479;DHT22;8350;52.316;10.530;2024-02-26T11:35:55;6.80;99.90
16479;DHT22;8350;52.316;10.530;2024-02-26T11:38:26;6.90;99.90
16479;DHT22;8350;52.316;10.530;2024-02-26T11:40:58;7.00;99.90
16479;DHT22;8350;52.316;10.530;2024-02-26T11:43:49;7.10;99.90
16479;DHT22;8350;52.316;10.530;2024-02-26T11:46:27;7.10;99.90
16479;DHT22;8350;52.316;10.530;2024-02-26T11:48:58;7.20;99.90
16479;DHT22;8350;52.316;10.530;2024-02-26T11:51:32;7.20;99.90
16479;DHT22;8350;52.316;10.530;2024-02-26T11:54:00;7.30;99.90
16479;DHT22;8350;52.316;10.530;2024-02-26T11:56:34;7.30;99.90
16479;DHT22;8350;52.316;10.530;2024-02-26T11:59:04;7.40;99.90
16479;DHT22;8350;52.316;10.530;2024-02-26T12:01:45;7.50;99.90
16479;DHT22;8350;52.316;10.530;2024-02-26T12:04:18;7.60;99.90
16479;DHT22;8350;52.316;10.530;2024-02-26T12:06:50;7.80;99.90
16479;DHT22;8350;52.316;10.530;2024-02-26T12:09:31;7.80;99.90
16479;DHT22;8350;52.316;10.530;2024-02-26T12:11:59;7.80;99.90
16479;DHT22;8350;52.316;10.530;2024-02-26T12:14:27;7.80;99.90
16479;DHT22;8350;52.316;10.530;2024-02-26T12:16:55;7.80;99.90
16479;DHT22;8350;52.316;10.530;2024-02-26T12:19:24;7.90;99.90
16479;DHT22;8350;52.316;10.530;2024-02-26T12:21:52;7.80;99.90
16479;DHT22;8350;52.316;10.530;2024-02-26T12:24:21;7.70;99.90
16479;DHT22;8350;52.316;10.530;2024-02-26T12:26:48;7.70;99.90
16479;DHT22;8350;52.316;10.530;2024-02-26T12:29:16;7.60;99.90
16479;DHT22;8350;52.316;10.530;2024-02-26T12:31:46;7.50;99.90
16479;DHT22;8350;52.316;10.530;2024-02-26T12:34:20;7.50;99.90
16479;DHT22;8350;52.316;10.530;2024-02-26T12:36:48;7.50;99.90
16479;DHT22;8350;52.316;10.530;2024-02-26T12:39:15;7.40;99.90
16479;DHT22;8350;52.316;10.530;2024-02-26T12:41:42;7.40;99.90
16479;DHT22;8350;52.316;10.530;2024-02-26T12:44:16;7.40;99.90
16479;DHT22;8350;52.316;10.530;2024-02-26T12:46:43;7.40;99.90
16479;DHT22;8350;52.316;10.530;2024-02-26T12:49:17;7.50;99.90
16479;DHT22;8350;52.316;10.530;2024-02-26T12:51:44;7.50;99.90
16479;DHT22;8350;52.316;10.530;2024-02-26T12:54:14;7.50;99.90
16479;DHT22;8350;52.316;10.530;2024-02-26T12:56:41;7.60;99.90
16479;DHT22;8350;52.316;10.530;2024-02-26T12:59:10;7.60;99.90
16479;DHT22;8350;52.316;10.530;2024-02-26T13:01:42;7.60;99.90
16479;DHT22;8350;52.316;10.530;2024-02-26T13:04:12;7.60;99.90
16479;DHT22;8350;52.316;10.530;2024-02-26T13:06:42;7.60;99.90
16479;DHT22;8350;52.316;10.530;2024-02-26T13:09:12;7.70;99.90
16479;DHT22;8350;52.316;10.530;2024-02-26T13:11:44;7.70;99.90
16479;DHT22;8350;52.316;10.530;2024-02-26T13:14:19;7.70;99.90
16479;DHT22;8350;52.316;10.530;2024-02-26T13:16:55;7.70;99.90
16479;DHT22;8350;52.316;10.530;2024-02-26T13:19:23;7.60;99.90
16479;DHT22;8350;52.316;10.530;2024-02-26T13:21:50;7.70;99.90
16479;DHT22;8350;52.316;10.530;2024-02-26T13:24:17;7.70;99.90
16479;DHT22;8350;52.316;10.530;2024-02-26T13:26:45;7.70;99.90
16479;DHT22;8350;52.316;10.530;2024-02-26T13:29:17;7.70;99.90
16479;DHT22;8350;52.316;10.530;2024-02-26T13:31:46;7.70;99.90
16479;DHT22;8350;52.316;10.530;2024-02-26T13:34:24;7.70;99.90
16479;DHT22;8350;52.316;10.530;2024-02-26T13:36:52;7.80;99.90
16479;DHT22;8350;52.316;10.530;2024-02-26T13:39:23;7.70;99.90
16479;DHT22;8350;52.316;10.530;2024-02-26T13:41:50;7.80;99.90
16479;DHT22;8350;52.316;10.530;2024-02-26T13:44:18;7.80;99.90
16479;DHT22;8350;52.316;10.530;2024-02-26T13:46:45;7.90;99.90
16479;DHT22;8350;52.316;10.530;2024-02-26T13:49:12;7.90;99.90
16479;DHT22;8350;52.316;10.530;2024-02-26T13:51:41;8.00;99.90
16479;DHT22;8350;52.316;10.530;2024-02-26T13:54:08;8.00;99.90
16479;DHT22;8350;52.316;10.530;2024-02-26T13:56:36;8.00;99.90
16479;DHT22;8350;52.316;10.530;2024-02-26T13:59:03;8.00;99.90
16479;DHT22;8350;52.316;10.530;2024-02-26T14:01:30;8.00;99.90
16479;DHT22;8350;52.316;10.530;2024-02-26T14:03:59;8.10;99.90
16479;DHT22;8350;52.316;10.530;2024-02-26T14:06:30;8.10;99.90
16479;DHT22;8350;52.316;10.530;2024-02-26T14:09:02;8.10;99.90
16479;DHT22;8350;52.316;10.530;2024-02-26T14:11:31;8.00;99.90
16479;DHT22;8350;52.316;10.530;2024-02-26T14:13:59;8.00;99.90
16479;DHT22;8350;52.316;10.530;2024-02-26T14:16:28;8.00;99.90
16479;DHT22;8350;52.316;10.530;2024-02-26T14:18:58;7.90;99.90
16479;DHT22;8350;52.316;10.530;2024-02-26T14:21:30;7.90;99.90
16479;DHT22;8350;52.316;10.530;2024-02-26T14:23:57;7.90;99.90
16479;DHT22;8350;52.316;10.530;2024-02-26T14:26:26;7.80;99.90
16479;DHT22;8350;52.316;10.530;2024-02-26T14:28:53;7.80;99.90
16479;DHT22;8350;52.316;10.530;2024-02-26T14:31:21;7.80;99.90
16479;DHT22;8350;52.316;10.530;2024-02-26T14:33:48;7.80;99.90
16479;DHT22;8350;52.316;10.530;2024-02-26T14:36:18;7.80;99.90
16479;DHT22;8350;52.316;10.530;2024-02-26T14:38:46;7.80;99.90
16479;DHT22;8350;52.316;10.530;2024-02-26T14:41:13;7.80;99.90
16479;DHT22;8350;52.316;10.530;2024-02-26T14:43:45;7.80;99.90
16479;DHT22;8350;52.316;10.530;2024-02-26T14:46:12;7.80;99.90
16479;DHT22;8350;52.316;10.530;2024-02-26T14:48:39;7.80;99.90
16479;DHT22;8350;52.316;10.530;2024-02-26T14:51:06;7.80;99.90
16479;DHT22;8350;52.316;10.530;2024-02-26T14:53:33;7.70;99.90
16479;DHT22;8350;52.316;10.530;2024-02-26T14:56:00;7.80;99.90
16479;DHT22;8350;52.316;10.530;2024-02-26T14:58:27;7.80;99.90
16479;DHT22;8350;52.316;10.530;2024-02-26T15:00:57;7.80;99.90
16479;DHT22;8350;52.316;10.530;2024-02-26T15:03:24;7.80;99.90
16479;DHT22;8350;52.316;10.530;2024-02-26T15:05:52;7.80;99.90
16479;DHT22;8350;52.316;10.530;2024-02-26T15:08:21;7.80;99.90
16479;DHT22;8350;52.316;10.530;2024-02-26T15:10:47;7.80;99.90
16479;DHT22;8350;52.316;10.530;2024-02-26T15:13:15;7.80;99.90
16479;DHT22;8350;52.316;10.530;2024-02-26T15:15:43;7.80;99.90
16479;DHT22;8350;52.316;10.530;2024-02-26T15:18:12;7.70;99.90
16479;DHT22;8350;52.316;10.530;2024-02-26T15:20:42;7.70;99.90
16479;DHT22;8350;52.316;10.530;2024-02-26T15:23:09;7.70;99.90
16479;DHT22;8350;52.316;10.530;2024-02-26T15:25:35;7.70;99.90
16479;DHT22;8350;52.316;10.530;2024-02-26T15:28:03;7.70;99.90
16479;DHT22;8350;52.316;10.530;2024-02-26T15:30:31;7.70;99.90
16479;DHT22;8350;52.316;10.530;2024-02-26T15:32:59;7.60;99.90
16479;DHT22;8350;52.316;10.530;2024-02-26T15:35:28;7.60;99.90
16479;DHT22;8350;52.316;10.530;2024-02-26T15:37:55;7.60;99.90
16479;DHT22;8350;52.316;10.530;2024-02-26T15:40:22;7.70;99.90
16479;DHT22;8350;52.316;10.530;2024-02-26T15:42:48;7.60;99.90
16479;DHT22;8350;52.316;10.530;2024-02-26T15:45:16;7.60;99.90
16479;DHT22;8350;52.316;10.530;2024-02-26T15:47:48;7.70;99.90
16479;DHT22;8350;52.316;10.530;2024-02-26T15:50:22;7.60;99.90